Terminal Aerodrome Forecast
Issued by NWS

Home | Current Version | Previous Version | Graphics & Text | Print | Product List | Glossary On
Versions: 1 2 3 4 5 6 7 8 9 10 11 12 13 14 15 16 17 18
328
FTUS43 KBIS 062339
TAFDIK
TAF
KDIK 062339Z 0700/0724 28029G41KT P6SM SCT110
     FM071400 32033G50KT P6SM BKN030
     FM071800 32035G53KT P6SM BKN035=

USA.gov is the U.S. government's official web portal to all federal, state and local government web resources and services.